Poplar Grove, IL

12:43 AM CST on February 22, 2017 (GMT -0600)
PG Elementary School | | Change Station
Active Advisory: Marine Fog Advisory

Elev 906 ft 42.37 °N, 88.82 °W | Updated 23 seconds ago

Partly Cloudy
Partly Cloudy
45.5 °F
Feels Like 46 °F
N
0.0
Wind Variable Wind from SW
Gusts 2.0 mph

Today
High -- | Low -- °F
--% Chance of Precip.
Yesterday
High -- | Low -- °F
Precip. -- in
Pressure 29.85 in
Visibility 1.5 miles
Clouds Clear
Windchill 46 °F
Dew Point 45 °F
Humidity 97%
Rainfall 0.00 in
Snow Depth Not available.
6:41 AM 5:36 PM
Waning Crescent, 19% visible
SPECI KRFD 220640Z 19003KT 1 1/2SM BR CLR 08/06 A2985 RMK AO2 T00780061
Pressure 29.85 in
Visibility 1.5 miles
Clouds Clear
Windchill 46 °F
Dew Point 45 °F
Humidity 97%
Rainfall 0.00 in
Snow Depth Not available.
6:41 AM 5:36 PM
Waning Crescent, 19% visible
SPECI KRFD 220640Z 19003KT 1 1/2SM BR CLR 08/06 A2985 RMK AO2 T00780061

Get Your Daily Forecast Email!

Thanks for signing up!

Be on the lookout for a verification email in your inbox.

You'll start receiving the daily forecast at 8 AM.

×

10-Day Weather Forecast

Almanac

Astronomy

Feb. 22, 2017 Rise Set
Actual Time
Civil Twilight
Nautical Twilight
Astronomical Twilight
Moon
Length of Visible Light
Length of Day
Tomorrow will be .
, % of the Moon is Illuminated

Today's Extremes

State Highs State Lows

Community

WunderPhotos

Upload Photos

1,962,540 photos uploaded!

WunderBlog® & News

Nearby

Air Quality

  Air Quality AQ Index Pollutant
Not available.

Snow Depth

Station Depth Elevation

Earthquake Activity

City Distance Mag. Time & Date
Minimum magnitude displayed is 2.5.

Coastal Water Temperatures

Place Temperature

Stations

Nearby Weather Stations

Station Location Temp. Windchill Dew Point Humidity Wind Precip. Elev Updated Type
                   

Watches & Warnings

Marine Fog Advisory
Issued: 9:56 PM CST Feb. 21, 2017 – National Weather Service

... Dense fog advisory remains in effect until 9 am CST
Wednesday...

* visibility... less than one quarter mile.

Precautionary/preparedness actions...

A dense fog advisory means visibilities will frequently be
reduced to less than one mile. Inexperienced mariners...
especially those operating smaller vessels should avoid
navigating in these conditions.